30/04/05 - 13h:44mDenunciar

Dassault Mirage 2000

Imagem de Jan Kraak, retirada do site Jetphotos.net.





METAR SBPB 301600Z 19007KT 9999 BKN020 BKN300 32/25 Q1012=

Comentários (0)

Fotos postadas a mais de 15 dias não podem receber comentários.